Time;durP1;ratioP1;P1;durP2;ratioP2;P2;SDS_P1;SDS_P2;PMS_P1;PMS_P2;Temp;Humidity;BMP_temperature;BMP_pressure;BME280_temperature;BME280_humidity;BME280_pressure;Samples;Min_cycle;Max_cycle;Signal;HPM_P1;HPM_P2
2021/06/04 00:00:33;;;;;;;6.10;5.60;;;;;;;21.33;65.54;100260.53;4996167;28;20058;-82
2021/06/04 00:05:42;;;;;;;6.40;5.65;;;;;;;21.28;65.46;100252.97;5033276;28;20403;-82
2021/06/04 00:08:11;;;;;;;6.10;5.57;;;;;;;21.29;65.32;100253.78;5034785;28;20057;-82
2021/06/04 00:13:35;;;;;;;7.80;6.13;;;;;;;21.22;65.48;100251.72;5077288;22;20060;-83
2021/06/04 00:16:20;;;;;;;6.65;5.00;;;;;;;21.23;65.79;100252.53;5014589;28;20053;-83
2021/06/04 00:18:57;;;;;;;5.63;4.78;;;;;;;21.22;65.44;100245.50;5013502;28;20096;-82
2021/06/04 00:21:37;;;;;;;5.97;5.22;;;;;;;21.24;65.47;100245.34;5013396;28;20065;-82
2021/06/04 00:24:40;;;;;;;9.05;5.70;;;;;;;21.17;65.98;100245.94;5019335;28;20053;-82
2021/06/04 00:30:58;;;;;;;7.30;5.25;;;;;;;21.12;65.80;100242.00;5024607;28;20064;-83
2021/06/04 00:33:38;;;;;;;6.07;5.47;;;;;;;21.09;65.43;100243.97;5033769;28;20486;-83
2021/06/04 00:36:10;;;;;;;7.28;5.40;;;;;;;21.06;65.52;100246.09;5013084;28;20054;-83
2021/06/04 00:39:05;;;;;;;5.65;5.10;;;;;;;21.01;66.24;100248.38;5013114;28;20050;-83
2021/06/04 01:16:22;;;;;;;7.30;5.47;;;;;;;20.95;66.24;100264.03;4990004;28;20417;-83
2021/06/04 01:23:27;;;;;;;;;;;;;;;;;;;;;
2021/06/04 01:30:10;;;;;;;6.55;5.90;;;;;;;20.93;66.03;100268.66;4894912;29;20108;-83
2021/06/04 01:32:38;;;;;;;7.00;6.30;;;;;;;20.97;65.56;100269.22;4895574;29;20059;-83
2021/06/04 01:35:10;;;;;;;8.60;7.70;;;;;;;20.95;66.39;100269.38;4949586;29;20051;-83
2021/06/04 01:37:38;;;;;;;8.15;7.15;;;;;;;20.98;65.78;100268.25;4952535;29;20055;-83
2021/06/04 01:40:22;;;;;;;8.15;6.57;;;;;;;20.96;66.04;100270.22;4952460;29;20087;-82
2021/06/04 01:42:50;;;;;;;7.47;6.57;;;;;;;20.99;65.22;100272.59;4952333;28;20059;-83
2021/06/04 01:45:23;;;;;;;7.10;6.40;;;;;;;20.95;65.32;100261.34;4952323;29;20715;-83
2021/06/04 01:47:56;;;;;;;7.38;6.68;;;;;;;20.95;65.60;100266.69;4965651;28;20061;-84
2021/06/04 01:50:29;;;;;;;8.90;7.63;;;;;;;20.94;65.66;100253.47;4971692;28;20058;-83
2021/06/04 01:52:59;;;;;;;8.05;7.25;;;;;;;20.92;65.63;100258.94;4971403;28;20423;-83
2021/06/04 01:55:32;;;;;;;8.30;7.18;;;;;;;20.90;66.11;100250.22;4971536;28;20495;-83
2021/06/04 01:58:25;;;;;;;9.85;7.90;;;;;;;20.92;65.39;100247.38;4971342;28;20047;-83
2021/06/04 02:01:03;;;;;;;9.75;6.95;;;;;;;20.88;66.05;100254.88;4969532;28;20078;-83
2021/06/04 02:03:30;;;;;;;8.57;7.00;;;;;;;20.90;65.28;100260.09;4971019;28;20063;-83
2021/06/04 02:05:58;;;;;;;7.68;6.90;;;;;;;20.88;65.32;100262.91;4977260;28;20051;-83
2021/06/04 02:08:29;;;;;;;14.45;7.20;;;;;;;20.86;65.51;100261.31;5067497;28;20126;-82
2021/06/04 02:10:57;;;;;;;8.30;7.03;;;;;;;20.85;65.52;100259.66;5072405;28;20052;-83
2021/06/04 02:13:24;;;;;;;8.38;7.57;;;;;;;20.82;65.59;100260.78;5072152;28;20048;-83
2021/06/04 02:16:05;;;;;;;8.98;7.25;;;;;;;20.78;66.24;100259.38;5071285;28;20057;-81
2021/06/04 02:18:47;;;;;;;9.13;7.80;;;;;;;20.75;66.45;100259.66;5071098;28;20135;-82
2021/06/04 02:21:23;;;;;;;8.23;7.47;;;;;;;20.75;66.30;100256.97;5054202;28;20087;-82
2021/06/04 02:23:57;;;;;;;8.43;7.53;;;;;;;20.77;66.39;100260.34;5054365;28;20386;-82
2021/06/04 02:26:32;;;;;;;8.90;7.03;;;;;;;20.74;65.31;100255.28;5071994;28;20048;-82
2021/06/04 02:29:26;;;;;;;7.65;6.95;;;;;;;20.72;65.53;100262.59;5072204;28;20497;-82
2021/06/04 02:32:18;;;;;;;10.45;7.72;;;;;;;20.69;65.57;100272.59;5053324;28;20519;-84
2021/06/04 02:34:56;;;;;;;7.65;7.03;;;;;;;20.66;65.74;100275.56;5072017;28;20417;-83
2021/06/04 02:37:30;;;;;;;9.02;7.90;;;;;;;20.65;65.63;100273.00;5071808;28;20114;-82
2021/06/04 02:40:02;;;;;;;7.95;7.20;;;;;;;20.64;65.89;100276.69;5071916;28;20060;-83
2021/06/04 02:42:39;;;;;;;8.48;7.63;;;;;;;20.62;66.33;100281.31;5071687;28;20464;-83
2021/06/04 02:45:26;;;;;;;8.27;7.47;;;;;;;20.61;66.24;100277.81;5071497;28;20776;-83
2021/06/04 02:48:00;;;;;;;7.72;6.93;;;;;;;20.63;65.88;100273.16;5070462;28;20074;-83
2021/06/04 02:50:47;;;;;;;9.82;7.53;;;;;;;20.61;66.44;100271.59;5071733;28;20063;-83
2021/06/04 02:53:19;;;;;;;7.75;6.93;;;;;;;20.64;65.76;100277.50;5053648;28;20064;-82
2021/06/04 02:56:44;;;;;;;8.85;7.95;;;;;;;20.60;66.02;100276.13;5062359;28;20049;-82
2021/06/04 02:59:36;;;;;;;7.32;6.65;;;;;;;20.61;65.92;100272.47;4950971;29;20056;-82
2021/06/04 03:02:07;;;;;;;9.18;8.38;;;;;;;20.65;66.05;100271.19;4951356;28;20203;-83
2021/06/04 03:04:36;;;;;;;7.78;6.97;;;;;;;20.65;65.78;100271.19;5033765;28;20052;-83
2021/06/04 03:07:09;;;;;;;9.73;8.32;;;;;;;20.66;66.45;100269.34;5051411;28;20053;-83
2021/06/04 03:09:38;;;;;;;;;;;;;;;20.67;65.67;100279.09;5051881;28;20045;-83
2021/06/04 03:12:11;;;;;;;8.88;8.07;;;;;;;20.72;65.98;100275.97;5034140;28;19924;-83
2021/06/04 03:14:38;;;;;;;10.32;8.57;;;;;;;20.73;65.58;100272.28;5050996;28;20048;-83
2021/06/04 03:17:10;;;;;;;11.30;9.90;;;;;;;20.70;66.35;100260.91;5036514;28;20052;-83
2021/06/04 03:19:38;;;;;;;9.77;8.93;;;;;;;20.72;66.03;100267.94;5037941;28;20057;-83
2021/06/04 03:22:15;;;;;;;13.63;10.07;;;;;;;20.69;66.65;100267.25;5037790;28;20056;-83
2021/06/04 03:24:43;;;;;;;10.02;8.95;;;;;;;20.73;66.06;100277.66;5037220;28;20537;-83
2021/06/04 03:27:11;;;;;;;10.75;9.52;;;;;;;20.73;66.08;100267.81;5061381;28;20473;-84
2021/06/04 03:29:38;;;;;;;9.98;8.95;;;;;;;20.75;66.35;100270.34;5055134;28;20099;-82
2021/06/04 03:32:08;;;;;;;9.15;8.27;;;;;;;;;;5055388;28;20134;-82
2021/06/04 03:34:37;;;;;;;8.95;8.05;;;;;;;20.79;65.98;100271.75;5054954;28;20057;-82
2021/06/04 03:37:05;;;;;;;9.50;8.45;;;;;;;20.79;65.91;100263.72;5055314;28;20049;-82
2021/06/04 03:39:36;;;;;;;9.68;8.73;;;;;;;20.78;66.17;100270.06;5055632;28;20095;-83
2021/06/04 03:42:07;;;;;;;9.23;8.35;;;;;;;20.78;66.30;100270.06;5037067;28;20083;-83
2021/06/04 03:44:41;;;;;;;9.52;8.35;;;;;;;20.75;66.21;100271.16;5055004;28;20079;-83
2021/06/04 03:47:08;;;;;;;10.75;9.65;;;;;;;20.78;66.11;100275.41;5055131;28;20045;-83
2021/06/04 03:49:36;;;;;;;10.32;9.35;;;;;;;20.78;66.29;100283.44;5054606;28;20655;-83
2021/06/04 03:52:06;;;;;;;10.88;8.57;;;;;;;20.77;66.61;100287.09;5054666;28;20486;-83
2021/06/04 03:54:39;;;;;;;10.30;9.25;;;;;;;20.75;66.38;100289.06;5054889;28;20119;-83
2021/06/04 03:57:09;;;;;;;10.27;9.25;;;;;;;20.76;66.39;100288.06;5054318;28;20049;-84
2021/06/04 03:59:37;;;;;;;9.93;8.82;;;;;;;20.75;66.27;100289.06;5036890;28;20506;-84
2021/06/04 04:02:06;;;;;;;10.30;8.18;;;;;;;;;;5037203;28;20103;-83
2021/06/04 04:04:32;;;;;;;9.63;8.73;;;;;;;20.76;66.48;100290.75;5054660;28;20056;-83
2021/06/04 04:06:59;;;;;;;11.25;9.48;;;;;;;20.77;66.61;100292.44;5054626;28;20052;-83
2021/06/04 04:09:26;;;;;;;12.15;9.13;;;;;;;20.77;66.57;100300.47;5037233;28;20053;-84
2021/06/04 04:11:53;;;;;;;11.55;8.55;;;;;;;20.78;66.62;100294.16;5054310;28;20106;-83
2021/06/04 04:14:23;;;;;;;10.57;8.82;;;;;;;20.78;67.11;100297.66;5054141;28;20045;-83
2021/06/04 04:16:50;;;;;;;11.10;9.90;;;;;;;20.83;66.74;100299.91;5054540;28;20059;-83
2021/06/04 04:19:19;;;;;;;16.92;10.50;;;;;;;20.85;67.14;100308.63;5036736;28;20111;-83
2021/06/04 04:21:48;;;;;;;11.65;10.55;;;;;;;20.89;67.22;100318.09;5036567;28;20048;-83
2021/06/04 04:24:19;;;;;;;11.57;10.38;;;;;;;20.93;67.10;100314.16;5054268;28;20052;-83
2021/06/04 04:26:46;;;;;;;9.05;7.97;;;;;;;20.96;66.80;100313.88;5054455;28;20106;-83
2021/06/04 04:29:14;;;;;;;10.70;9.70;;;;;;;21.00;66.77;100321.63;5053540;28;20425;-82
2021/06/04 04:31:48;;;;;;;12.95;10.55;;;;;;;20.99;67.01;100325.28;5054422;28;20267;-83
2021/06/04 04:34:16;;;;;;;12.88;11.05;;;;;;;21.03;66.90;100324.84;5053801;28;20049;-82
2021/06/04 04:36:49;;;;;;;14.68;11.18;;;;;;;21.03;67.05;100319.50;5036260;28;20058;-83
2021/06/04 04:39:23;;;;;;;11.65;10.45;;;;;;;21.05;66.96;100319.38;5054498;28;20086;-83
2021/06/04 04:41:51;;;;;;;12.00;10.73;;;;;;;21.06;66.57;100313.03;5036217;28;20498;-83
2021/06/04 04:44:29;;;;;;;17.30;12.90;;;;;;;21.04;66.91;100321.19;5055872;28;20049;-83
2021/06/04 04:46:56;;;;;;;13.43;12.02;;;;;;;21.06;66.69;100318.38;5055992;28;20103;-83
2021/06/04 04:49:23;;;;;;;17.20;14.73;;;;;;;21.05;66.65;100317.50;5056053;28;20056;-83
2021/06/04 04:51:50;;;;;;;14.70;13.10;;;;;;;21.06;66.80;100329.06;5038156;28;20057;-83
2021/06/04 04:54:18;;;;;;;18.10;15.63;;;;;;;21.05;66.85;100330.06;5038546;28;20071;-84
2021/06/04 04:56:49;;;;;;;18.70;16.48;;;;;;;21.03;67.04;100332.88;5038351;28;20057;-84
2021/06/04 04:59:17;;;;;;;17.63;15.73;;;;;;;21.02;67.17;100331.22;5056265;28;20049;-84
2021/06/04 05:01:44;;;;;;;19.70;17.58;;;;;;;21.03;67.33;100329.34;5055948;28;20053;-83
2021/06/04 05:04:11;;;;;;;31.90;20.15;;;;;;;21.03;67.79;100332.03;5037735;28;20056;-84
2021/06/04 05:06:38;;;;;;;24.83;17.73;;;;;;;21.04;67.70;100329.22;5068704;28;20048;-83
2021/06/04 05:09:06;;;;;;;24.70;18.92;;;;;;;21.07;68.05;100336.13;5057444;28;20056;-83
2021/06/04 05:11:33;;;;;;;20.70;17.63;;;;;;;21.09;67.95;100334.97;5073740;28;20482;-83
2021/06/04 05:13:59;;;;;;;22.23;17.88;;;;;;;21.13;68.00;100335.56;5074532;28;20107;-83
2021/06/04 05:16:26;;;;;;;26.20;19.38;;;;;;;21.16;68.12;100345.13;5057888;28;20118;-83
2021/06/04 05:18:53;;;;;;;23.45;19.90;;;;;;;21.21;68.21;100335.69;5057394;28;20054;-85
2021/06/04 05:21:21;;;;;;;47.53;19.45;;;;;;;21.26;68.18;100342.47;5057763;28;20056;-84
2021/06/04 05:23:48;;;;;;;29.77;18.48;;;;;;;21.29;68.08;100336.78;5075342;28;20053;-84
2021/06/04 05:26:14;;;;;;;21.42;18.42;;;;;;;21.31;68.17;100337.50;5057154;28;20146;-85
2021/06/04 05:28:42;;;;;;;29.52;21.63;;;;;;;21.35;68.29;100331.72;5074186;28;20056;-83
2021/06/04 05:31:11;;;;;;;44.95;20.90;;;;;;;21.39;68.37;100328.75;5073805;28;20055;-82
2021/06/04 05:33:40;;;;;;;68.63;22.20;;;;;;;21.42;68.38;100329.28;5073959;28;20052;-83
2021/06/04 05:36:14;;;;;;;21.98;19.23;;;;;;;21.45;68.62;100325.47;5038778;28;20052;-83
2021/06/04 05:38:41;;;;;;;49.10;21.90;;;;;;;21.51;68.22;100324.91;5051517;28;20865;-84
2021/06/04 05:41:08;;;;;;;38.58;20.77;;;;;;;21.55;68.20;100325.47;5054835;28;20068;-83
2021/06/04 05:43:37;;;;;;;37.95;20.42;;;;;;;21.59;68.45;100330.41;5035889;28;20052;-83
2021/06/04 05:46:05;;;;;;;40.92;20.95;;;;;;;21.64;68.35;100332.63;5052716;28;20057;-84
2021/06/04 05:48:32;;;;;;;51.33;20.88;;;;;;;21.69;68.33;100326.84;5052706;28;20060;-82
2021/06/04 05:51:03;;;;;;;70.50;21.60;;;;;;;21.72;68.41;100335.44;5052587;28;20541;-82
2021/06/04 05:53:32;;;;;;;46.38;20.77;;;;;;;21.78;68.22;100339.38;5052344;28;20110;-82
2021/06/04 05:56:00;;;;;;;46.65;20.73;;;;;;;21.84;68.28;100343.31;5053628;28;20064;-83
2021/06/04 05:58:28;;;;;;;34.63;19.00;;;;;;;21.87;68.07;100343.03;5052631;28;20386;-83
2021/06/04 06:00:58;;;;;;;73.80;22.38;;;;;;;21.91;68.09;100343.56;5052318;28;20060;-82
2021/06/04 06:04:02;;;;;;;27.75;22.15;;;;;;;21.89;68.31;100350.91;5125809;22;20174;-83
2021/06/04 06:07:26;;;;;;;34.55;22.02;;;;;;;21.93;68.21;100350.47;4965331;28;20652;-83
2021/06/04 06:10:02;;;;;;;39.60;19.63;;;;;;;22.01;67.78;100352.41;5008050;28;20054;-82
2021/06/04 06:13:22;;;;;;;35.97;22.45;;;;;;;22.01;68.52;100360.44;5011261;28;20054;-84
2021/06/04 06:21:07;;;;;;;36.05;21.80;;;;;;;22.15;68.06;100355.56;4820933;29;20759;-82
2021/06/04 06:24:09;;;;;;;29.15;22.05;;;;;;;22.22;68.06;100354.84;4867564;29;20051;-84
2021/06/04 06:34:27;;;;;;;26.23;22.10;;;;;;;22.44;67.98;100366.16;4913169;29;20090;-82
2021/06/04 06:37:07;;;;;;;29.05;20.92;;;;;;;22.50;67.72;100362.03;4913468;29;20055;-84
2021/06/04 06:40:14;;;;;;;27.10;23.20;;;;;;;22.54;68.10;100368.75;4966660;28;20146;-84
2021/06/04 06:43:26;;;;;;;42.92;24.50;;;;;;;22.61;67.95;100372.56;4987250;28;20101;-83
2021/06/04 06:46:23;;;;;;;29.08;23.23;;;;;;;22.70;67.89;100372.66;4991728;28;20066;-84
2021/06/04 06:49:11;;;;;;;27.83;23.13;;;;;;;22.83;67.76;100366.94;5002901;28;20065;-83
2021/06/04 06:56:11;;;;;;;24.77;21.40;;;;;;;22.99;66.90;100385.03;5004230;28;20048;-82
2021/06/04 06:59:29;;;;;;;23.92;21.25;;;;;;;23.10;66.97;100383.94;4997025;28;20048;-83
2021/06/04 07:02:20;;;;;;;27.83;24.45;;;;;;;23.19;66.84;100387.53;5011667;28;20061;-84
2021/06/04 07:05:49;;;;;;;28.83;23.90;;;;;;;23.20;66.38;100390.06;5017943;28;20412;-84
2021/06/04 07:08:39;;;;;;;25.58;22.08;;;;;;;23.32;65.97;100387.16;5010346;28;20087;-84
2021/06/04 07:11:12;;;;;;;27.63;24.63;;;;;;;23.35;66.08;100385.00;5018502;28;20447;-82
2021/06/04 07:21:53;;;;;;;29.00;23.50;;;;;;;23.56;66.40;100397.25;4938687;29;20055;-84
2021/06/04 07:28:26;;;;;;;25.67;22.80;;;;;;;23.82;65.72;100397.25;4938514;29;20058;-84
2021/06/04 07:31:33;;;;;;;29.92;24.10;;;;;;;23.85;66.52;100400.63;4938175;29;20106;-83
2021/06/04 07:34:16;;;;;;;25.75;22.50;;;;;;;23.94;65.96;100392.47;4970341;28;20128;-84
2021/06/04 07:37:00;;;;;;;32.40;24.63;;;;;;;24.02;65.45;100383.59;5018260;28;20085;-83
2021/06/04 07:40:05;;;;;;;;;;;;;;;;;;;;;
2021/06/04 07:42:57;;;;;;;26.90;22.83;;;;;;;24.29;65.15;100395.16;5080517;23;20150;-83
2021/06/04 07:45:28;;;;;;;25.85;21.33;;;;;;;24.38;65.00;100397.88;5041919;28;20044;-84
2021/06/04 07:47:54;;;;;;;24.77;21.02;;;;;;;24.47;63.75;100402.28;5040898;28;20064;-83
2021/06/04 07:50:22;;;;;;;27.13;23.15;;;;;;;24.54;63.95;100400.63;5021487;28;20057;-84
2021/06/04 07:52:49;;;;;;;26.60;22.10;;;;;;;24.61;63.73;100400.81;5021013;28;20068;-84
2021/06/04 07:55:19;;;;;;;25.50;21.63;;;;;;;24.66;63.16;100398.47;5034766;28;20044;-84
2021/06/04 07:57:45;;;;;;;23.45;19.60;;;;;;;24.73;62.94;100395.97;5041372;28;20118;-83
2021/06/04 08:00:23;;;;;;;25.42;20.30;;;;;;;24.77;62.27;100400.00;5040748;28;20052;-84
2021/06/04 08:02:50;;;;;;;23.30;20.77;;;;;;;24.86;62.03;100403.59;5038284;28;20057;-84
2021/06/04 08:05:19;;;;;;;26.95;20.88;;;;;;;24.90;61.77;100399.56;5037897;28;20366;-83
2021/06/04 08:07:46;;;;;;;25.52;21.67;;;;;;;24.94;62.09;100403.63;5037797;28;20045;-84
2021/06/04 08:10:14;;;;;;;25.45;20.05;;;;;;;24.97;61.36;100402.44;5036022;28;20041;-83
2021/06/04 08:12:43;;;;;;;24.67;19.63;;;;;;;24.99;61.46;100400.41;5038006;28;20488;-84
2021/06/04 08:15:14;;;;;;;23.63;18.52;;;;;;;25.01;61.13;100402.94;5037222;28;20053;-83
2021/06/04 08:17:42;;;;;;;25.20;20.25;;;;;;;25.06;61.67;100403.28;5037689;28;20744;-84
2021/06/04 08:20:11;;;;;;;22.58;18.20;;;;;;;25.07;60.31;100391.47;5037643;28;20064;-84
2021/06/04 08:22:45;;;;;;;25.95;18.65;;;;;;;25.08;59.87;100393.19;5037317;28;20063;-84
2021/06/04 08:25:14;;;;;;;22.23;17.60;;;;;;;25.15;60.45;100393.34;5037232;28;20140;-84
2021/06/04 08:27:41;;;;;;;24.95;18.48;;;;;;;25.18;60.32;100404.63;5028287;28;20059;-84
2021/06/04 08:30:10;;;;;;;20.27;17.17;;;;;;;25.22;60.03;100399.75;5017588;28;20053;-84
2021/06/04 08:32:38;;;;;;;20.92;18.45;;;;;;;25.27;60.74;100400.09;5017700;28;20512;-84
2021/06/04 08:35:08;;;;;;;21.85;18.13;;;;;;;25.31;59.77;100404.09;5016979;28;20132;-84
2021/06/04 08:37:36;;;;;;;27.85;18.05;;;;;;;25.38;60.05;100397.03;5017627;28;20053;-84
2021/06/04 08:40:14;;;;;;;21.92;18.30;;;;;;;25.43;59.33;100398.38;5017438;28;20053;-84
2021/06/04 08:42:45;;;;;;;21.45;17.50;;;;;;;25.54;59.80;100400.75;5034071;28;20053;-84
2021/06/04 08:45:31;;;;;;;18.88;15.75;;;;;;;25.57;59.56;100403.09;5054339;28;20456;-84
2021/06/04 08:48:37;;;;;;;21.33;16.27;;;;;;;25.67;59.10;100402.13;5036916;28;20132;-84
2021/06/04 08:51:36;;;;;;;21.88;17.02;;;;;;;25.79;58.69;100398.00;5036678;28;20047;-84
2021/06/04 08:54:38;;;;;;;20.13;15.93;;;;;;;25.88;58.80;100402.41;5036773;28;20049;-84
2021/06/04 08:57:33;;;;;;;21.17;15.65;;;;;;;25.95;57.59;100407.09;5053451;28;20053;-84
2021/06/04 09:00:04;;;;;;;21.45;17.10;;;;;;;26.02;58.16;100397.31;5053073;28;20049;-84
2021/06/04 09:02:39;;;;;;;22.40;16.92;;;;;;;26.02;58.07;100400.81;5053419;28;20049;-84
2021/06/04 09:05:28;;;;;;;17.52;15.50;;;;;;;26.02;59.04;100408.09;5036775;28;20432;-83
2021/06/04 09:07:56;;;;;;;18.98;15.20;;;;;;;26.08;58.62;100391.19;5056324;28;20404;-84
2021/06/04 09:10:36;;;;;;;19.60;16.92;;;;;;;26.07;59.09;100396.75;5042066;28;20504;-83
2021/06/04 09:13:12;;;;;;;20.02;15.73;;;;;;;26.11;59.20;100398.94;5036693;28;20527;-84
2021/06/04 09:15:41;;;;;;;19.98;16.27;;;;;;;26.20;58.08;100396.22;5053271;28;20051;-83
2021/06/04 09:18:39;;;;;;;18.88;16.83;;;;;;;26.20;57.82;100394.34;5036178;28;20057;-84
2021/06/04 09:21:13;;;;;;;18.48;15.68;;;;;;;26.33;56.58;100392.97;5030039;28;20045;-83
2021/06/04 09:23:59;;;;;;;20.85;16.70;;;;;;;26.40;56.34;100397.47;5027638;28;20136;-84
2021/06/04 09:26:27;;;;;;;19.20;16.60;;;;;;;26.50;57.33;100396.44;5016192;28;20054;-83
2021/06/04 09:29:04;;;;;;;22.33;16.88;;;;;;;26.52;56.17;100397.94;5016493;28;20058;-84
2021/06/04 09:31:47;;;;;;;20.77;17.08;;;;;;;26.56;56.82;100401.13;5016771;28;20471;-84
2021/06/04 09:34:17;;;;;;;;;;;;;;;26.63;58.04;100401.25;5016612;28;20049;-84
2021/06/04 09:37:23;;;;;;;21.40;16.15;;;;;;;26.66;57.04;100401.72;5032470;28;19921;-84
2021/06/04 09:40:10;;;;;;;21.23;17.25;;;;;;;26.72;56.97;100402.06;5013599;28;20067;-84
2021/06/04 09:42:57;;;;;;;22.33;15.10;;;;;;;26.78;57.33;100410.28;5032586;28;20049;-84
2021/06/04 09:45:29;;;;;;;19.50;15.57;;;;;;;26.88;56.64;100401.09;5032268;28;20053;-83
2021/06/04 09:48:02;;;;;;;20.35;15.18;;;;;;;26.92;56.15;100397.84;5016671;28;20486;-84
2021/06/04 09:50:44;;;;;;;19.75;15.63;;;;;;;26.99;56.60;100398.00;5016458;28;20050;-84
2021/06/04 09:53:20;;;;;;;23.63;16.67;;;;;;;27.07;56.17;100405.22;5033046;28;20049;-83
2021/06/04 09:55:50;;;;;;;18.48;15.73;;;;;;;27.16;55.84;100398.72;5015850;28;20060;-84
2021/06/04 09:58:24;;;;;;;20.05;16.05;;;;;;;27.21;55.01;100400.88;5016360;28;20061;-84
2021/06/04 10:00:54;;;;;;;19.27;16.27;;;;;;;27.28;55.25;100406.41;5016237;28;20105;-84
2021/06/04 10:03:21;;;;;;;17.45;15.30;;;;;;;27.37;55.89;100405.31;5015836;28;20391;-84
2021/06/04 10:06:32;;;;;;;18.60;15.52;;;;;;;27.45;55.26;100402.53;5022322;28;20069;-84
2021/06/04 10:09:18;;;;;;;18.67;14.60;;;;;;;27.66;54.56;100401.00;5035512;28;20053;-84
2021/06/04 10:12:16;;;;;;;16.92;14.77;;;;;;;27.80;53.54;100395.78;5035483;28;20421;-84
2021/06/04 10:19:58;;;;;;;18.35;15.00;;;;;;;28.08;52.34;100393.25;5045559;28;20405;-84
2021/06/04 10:22:40;;;;;;;21.45;14.73;;;;;;;28.06;52.27;100391.75;5033173;28;20513;-84
2021/06/04 10:25:08;;;;;;;16.77;14.27;;;;;;;28.15;53.19;100387.09;5015270;28;20470;-84
2021/06/04 10:27:34;;;;;;;21.77;17.00;;;;;;;28.16;52.17;100389.63;5017266;28;20049;-84
2021/06/04 10:30:22;;;;;;;21.98;17.17;;;;;;;28.10;52.31;100393.91;5035836;28;20048;-84
2021/06/04 10:32:55;;;;;;;21.63;17.40;;;;;;;28.11;51.56;100397.47;5035710;28;20053;-83
2021/06/04 10:35:30;;;;;;;20.40;16.15;;;;;;;28.07;51.19;100391.59;5016971;28;20053;-84
2021/06/04 10:38:03;;;;;;;18.23;15.65;;;;;;;28.07;52.02;100390.75;5016044;28;20045;-84
2021/06/04 10:41:06;;;;;;;23.98;16.52;;;;;;;28.05;53.67;100395.50;5015249;28;20057;-84
2021/06/04 10:43:38;;;;;;;23.48;17.48;;;;;;;28.19;53.66;100383.00;5015096;28;20058;-84
2021/06/04 10:46:23;;;;;;;23.98;16.83;;;;;;;28.35;53.02;100390.09;5015407;28;20057;-84
2021/06/04 10:49:09;;;;;;;22.92;17.08;;;;;;;28.68;53.94;100384.22;5018291;28;20046;-84
2021/06/04 10:51:44;;;;;;;16.73;14.90;;;;;;;29.09;51.61;100376.50;5015098;28;20054;-84
2021/06/04 10:54:30;;;;;;;17.42;13.88;;;;;;;29.42;51.31;100365.09;5015060;28;20049;-84
2021/06/04 10:57:10;;;;;;;17.25;14.02;;;;;;;29.71;49.75;100368.63;5016416;28;20056;-84
2021/06/04 11:00:03;;;;;;;19.05;14.63;;;;;;;29.90;49.62;100374.38;5015580;28;20052;-84
2021/06/04 11:02:32;;;;;;;;;;;;;;;30.04;51.64;100367.97;5015370;28;20049;-84
2021/06/04 11:05:13;;;;;;;14.88;12.77;;;;;;;30.16;49.18;100370.97;5031493;28;19921;-84
2021/06/04 11:08:10;;;;;;;15.32;11.40;;;;;;;30.07;49.32;100374.03;5015200;28;20050;-84
2021/06/04 11:11:12;;;;;;;16.67;13.75;;;;;;;30.11;47.61;100372.56;5028839;28;20053;-84
2021/06/04 11:14:09;;;;;;;18.05;13.80;;;;;;;30.22;50.09;100368.47;5008354;28;20053;-84
2021/06/04 11:16:50;;;;;;;15.60;13.80;;;;;;;30.51;49.06;100370.06;5034831;28;20398;-84
2021/06/04 11:19:42;;;;;;;13.45;12.05;;;;;;;30.95;51.26;100361.59;5035018;28;20102;-84
2021/06/04 11:22:18;;;;;;;18.73;13.23;;;;;;;31.45;46.91;100366.59;4952229;29;20047;-85
2021/06/04 11:24:55;;;;;;;14.50;11.85;;;;;;;31.88;47.62;100356.25;4937282;29;20051;-84
2021/06/04 11:27:35;;;;;;;15.65;12.43;;;;;;;32.24;45.97;100357.59;4933074;29;20055;-84
2021/06/04 11:30:21;;;;;;;12.40;11.10;;;;;;;32.64;46.28;100358.44;4932982;29;20097;-84
2021/06/04 11:33:02;;;;;;;13.90;11.02;;;;;;;33.06;46.80;100352.47;4933317;29;20056;-85
2021/06/04 11:35:34;;;;;;;14.73;12.23;;;;;;;33.52;44.97;100353.09;4933472;29;20054;-85
2021/06/04 11:38:21;;;;;;;15.52;11.25;;;;;;;33.93;45.73;100353.50;4943396;29;20415;-84
2021/06/04 11:40:51;;;;;;;12.13;10.82;;;;;;;34.38;44.16;100343.25;5022130;28;20045;-84
2021/06/04 11:43:28;;;;;;;14.32;10.98;;;;;;;34.73;43.85;100340.91;5038879;28;20063;-84
2021/06/04 11:46:22;;;;;;;12.90;10.80;;;;;;;35.04;43.26;100344.38;5038613;28;20405;-84
2021/06/04 11:49:08;;;;;;;12.60;10.65;;;;;;;35.24;42.97;100341.31;5038926;28;20048;-84
2021/06/04 11:51:38;;;;;;;12.07;10.48;;;;;;;35.31;39.28;100343.94;5034506;28;20045;-84
2021/06/04 11:54:34;;;;;;;10.75;9.65;;;;;;;35.09;40.94;100341.75;5018586;28;20049;-84
2021/06/04 11:57:41;;;;;;;12.38;9.93;;;;;;;34.96;39.57;100332.75;5018432;28;20072;-84
2021/06/04 12:00:18;;;;;;;11.05;9.35;;;;;;;34.83;39.23;100331.03;4983613;28;20045;-84
2021/06/04 12:02:50;;;;;;;13.15;10.60;;;;;;;34.85;40.28;100325.34;5017932;28;20059;-84
2021/06/04 12:05:17;;;;;;;10.60;9.52;;;;;;;34.93;39.95;100325.00;5019175;28;20192;-84
2021/06/04 12:07:45;;;;;;;10.52;9.43;;;;;;;35.01;39.32;100323.00;5055424;28;20053;-84
2021/06/04 12:10:51;;;;;;;10.63;8.88;;;;;;;35.01;39.64;100320.25;5037488;28;20059;-84
2021/06/04 12:13:40;;;;;;;11.65;10.05;;;;;;;35.15;40.08;100320.88;5037683;28;20053;-84
2021/06/04 12:16:22;;;;;;;9.27;8.00;;;;;;;35.34;40.32;100316.09;5037561;28;20057;-84
2021/06/04 12:18:52;;;;;;;;;;;;;;;35.61;43.06;100321.03;5038375;28;20119;-85
2021/06/04 12:21:37;;;;;;;9.68;8.75;;;;;;;36.00;39.56;100312.28;5020419;28;19924;-83
2021/06/04 12:24:20;;;;;;;9.13;8.13;;;;;;;36.36;39.00;100315.69;5017494;28;20057;-83
2021/06/04 12:26:52;;;;;;;7.97;7.18;;;;;;;36.64;37.59;100311.25;5017505;28;20053;-83
2021/06/04 12:29:22;;;;;;;9.95;6.68;;;;;;;36.74;36.37;100307.84;5017907;28;20054;-90
2021/06/04 12:32:09;;;;;;;11.05;7.55;;;;;;;36.68;36.96;100306.13;5017949;28;20059;-87
2021/06/04 12:34:36;;;;;;;9.43;7.97;;;;;;;36.75;37.27;100301.31;5028445;28;20075;-84
2021/06/04 12:37:18;;;;;;;12.20;9.68;;;;;;;36.81;36.86;100304.94;5037270;28;20055;-84
2021/06/04 12:40:00;;;;;;;10.43;9.43;;;;;;;36.92;36.96;100300.44;5037543;28;20410;-85
2021/06/04 12:45:26;;;;;;;9.68;8.68;;;;;;;36.87;36.61;100297.63;5074826;22;20057;-81
2021/06/04 12:48:17;;;;;;;10.07;8.75;;;;;;;36.67;36.22;100292.66;5017693;28;20046;-81
2021/06/04 12:50:46;;;;;;;9.40;8.45;;;;;;;36.57;35.84;100287.81;5033814;28;20404;-81
2021/06/04 12:53:20;;;;;;;11.45;8.82;;;;;;;36.51;36.33;100290.47;5033671;28;20060;-85
2021/06/04 12:56:08;;;;;;;9.30;8.40;;;;;;;36.60;36.44;100287.31;5033452;28;20045;-84
2021/06/04 12:59:11;;;;;;;10.57;8.25;;;;;;;36.75;36.85;100284.84;5033484;28;20050;-86
2021/06/04 13:01:53;;;;;;;;;;;;;;;36.96;39.25;100287.88;5033930;28;20064;-82
2021/06/04 13:04:28;;;;;;;11.52;7.65;;;;;;;37.16;35.84;100286.56;5017361;28;20003;-84
2021/06/04 13:06:57;;;;;;;7.75;6.95;;;;;;;37.24;34.46;100288.88;5017018;28;20049;-82
2021/06/04 13:09:35;;;;;;;7.65;6.95;;;;;;;37.21;34.62;100281.16;5017318;28;20141;-89
2021/06/04 13:14:54;;;;;;;8.55;7.22;;;;;;;37.02;35.21;100278.66;5274105;22;20049;-88
2021/06/04 13:43:49;;;;;;;5.82;4.95;;;;;;;39.35;31.56;100264.72;5077081;28;20052;-82
2021/06/04 13:46:21;;;;;;;5.45;4.95;;;;;;;39.54;31.41;100250.50;5095658;28;20543;-83
2021/06/04 13:49:11;;;;;;;5.38;4.88;;;;;;;39.70;32.24;100260.47;5094847;28;20070;-83
2021/06/04 13:51:50;;;;;;;8.05;5.30;;;;;;;39.95;31.82;100244.25;5057595;28;20079;-83
2021/06/04 13:54:30;;;;;;;5.95;5.28;;;;;;;40.11;31.17;100240.44;5074562;28;20048;-83
2021/06/04 13:57:19;;;;;;;5.90;5.22;;;;;;;40.28;30.99;100241.28;5075010;28;20052;-83
2021/06/04 13:59:46;;;;;;;5.45;5.05;;;;;;;40.45;29.87;100233.56;5092834;28;20047;-83
2021/06/04 14:02:26;;;;;;;5.25;4.75;;;;;;;40.44;29.73;100228.31;5095614;28;20488;-83
2021/06/04 14:04:56;;;;;;;5.63;4.55;;;;;;;40.48;29.51;100232.19;5095010;28;20052;-83